Time;durP1;ratioP1;P1;durP2;ratioP2;P2;SDS_P1;SDS_P2;PMS_P1;PMS_P2;Temp;Humidity;BMP_temperature;BMP_pressure;BME280_temperature;BME280_humidity;BME280_pressure;Samples;Min_cycle;Max_cycle;Signal;HPM_P1;HPM_P2
2023/07/02 00:01:31;;;;;;;2.47;1.60;;;16.70;37.80;;;;;;5031851;28;20916;-58
2023/07/02 00:03:59;;;;;;;3.10;1.73;;;16.70;38.10;;;;;;5031236;28;20550;-59
2023/07/02 00:06:26;;;;;;;1.40;1.30;;;16.70;38.10;;;;;;5027237;28;20491;-58
2023/07/02 00:08:52;;;;;;;4.33;1.70;;;16.70;38.20;;;;;;5021596;28;20889;-58
2023/07/02 00:11:19;;;;;;;1.43;1.33;;;16.70;40.00;;;;;;5030658;28;20564;-58
2023/07/02 00:13:45;;;;;;;4.63;1.70;;;16.70;39.00;;;;;;5028359;28;21013;-57
2023/07/02 00:16:12;;;;;;;1.53;1.50;;;16.70;39.10;;;;;;5024134;28;20948;-58
2023/07/02 00:18:38;;;;;;;4.20;2.17;;;16.70;39.30;;;;;;5020425;28;20881;-59
2023/07/02 00:21:06;;;;;;;1.70;1.60;;;16.70;40.00;;;;;;5027029;28;20524;-58
2023/07/02 00:23:33;;;;;;;1.90;1.80;;;16.70;40.20;;;;;;5027581;28;20568;-58
2023/07/02 00:25:59;;;;;;;1.50;1.40;;;16.70;40.50;;;;;;5026845;28;20513;-58
2023/07/02 00:28:26;;;;;;;1.70;1.60;;;16.70;40.00;;;;;;5028669;28;20554;-57
2023/07/02 00:30:52;;;;;;;1.63;1.63;;;16.70;39.90;;;;;;5024397;28;20513;-58
2023/07/02 00:33:19;;;;;;;4.07;2.00;;;16.70;40.00;;;;;;5029744;28;20486;-58
2023/07/02 00:35:45;;;;;;;2.23;1.70;;;16.70;40.20;;;;;;5028652;28;20577;-59
2023/07/02 00:38:13;;;;;;;2.33;2.00;;;16.70;40.30;;;;;;5028302;28;20948;-58
2023/07/02 00:40:40;;;;;;;1.93;1.83;;;16.70;40.40;;;;;;5031842;28;20490;-58
2023/07/02 00:43:10;;;;;;;3.03;2.10;;;16.70;40.50;;;;;;5022108;28;20549;-58
2023/07/02 00:45:38;;;;;;;6.63;2.13;;;16.70;40.20;;;;;;5027539;28;20542;-57
2023/07/02 00:48:05;;;;;;;7.87;2.07;;;16.70;39.20;;;;;;5030436;28;20831;-58
2023/07/02 00:50:31;;;;;;;2.00;1.90;;;16.70;39.50;;;;;;5022705;28;20565;-58
2023/07/02 00:52:58;;;;;;;2.43;2.13;;;16.70;39.20;;;;;;5024216;28;21178;-58
2023/07/02 00:55:26;;;;;;;2.40;2.20;;;16.70;38.60;;;;;;5028904;28;20889;-59
2023/07/02 00:57:53;;;;;;;6.50;2.37;;;16.70;38.60;;;;;;5029471;28;20486;-58
2023/07/02 01:00:20;;;;;;;2.57;2.37;;;16.70;38.60;;;;;;5026822;28;20491;-59
2023/07/02 01:02:57;;;;;;;2.17;2.07;;;16.60;37.30;;;;;;5030101;28;20913;-58
2023/07/02 01:05:24;;;;;;;1.93;1.83;;;16.60;37.60;;;;;;5031377;28;20511;-58
2023/07/02 01:07:50;;;;;;;3.90;2.50;;;16.60;37.00;;;;;;5023903;28;20557;-58
2023/07/02 01:10:17;;;;;;;2.90;2.70;;;16.60;34.80;;;;;;5027992;28;20502;-58
2023/07/02 01:12:46;;;;;;;4.10;2.63;;;16.60;34.30;;;;;;5028765;28;20494;-58
2023/07/02 01:15:13;;;;;;;2.53;2.30;;;16.60;33.50;;;;;;5025606;28;20930;-59
2023/07/02 01:17:41;;;;;;;2.40;2.20;;;16.50;29.90;;;;;;5027039;28;20569;-59
2023/07/02 01:20:11;;;;;;;2.67;2.47;;;16.50;29.30;;;;;;5024738;28;20487;-58
2023/07/02 01:22:39;;;;;;;14.73;2.53;;;16.50;29.40;;;;;;5030132;28;21017;-59
2023/07/02 01:25:08;;;;;;;2.37;2.20;;;16.50;27.70;;;;;;5030009;28;20447;-58
2023/07/02 01:27:35;;;;;;;4.47;2.93;;;16.40;25.20;;;;;;5032905;28;20553;-58
2023/07/02 01:30:02;;;;;;;3.30;2.93;;;16.40;24.90;;;;;;5031600;28;20505;-58
2023/07/02 01:32:29;;;;;;;5.53;2.60;;;16.40;23.70;;;;;;5031480;28;20561;-58
2023/07/02 01:34:56;;;;;;;2.70;2.50;;;16.30;24.10;;;;;;5025832;28;20491;-58
2023/07/02 01:37:24;;;;;;;7.30;2.90;;;16.30;22.90;;;;;;5025289;28;20545;-58
2023/07/02 01:39:50;;;;;;;3.20;2.90;;;16.30;23.00;;;;;;5032545;28;21066;-59
2023/07/02 01:42:18;;;;;;;2.93;2.73;;;16.20;22.90;;;;;;5032892;28;20542;-59
2023/07/02 01:44:45;;;;;;;4.73;2.97;;;16.20;22.70;;;;;;5024846;28;20462;-58
2023/07/02 01:47:12;;;;;;;3.27;2.30;;;16.20;22.70;;;;;;5032182;28;20526;-58
2023/07/02 01:49:39;;;;;;;8.57;3.53;;;16.20;22.30;;;;;;5027617;28;20578;-58
2023/07/02 01:52:06;;;;;;;6.13;2.73;;;16.20;22.10;;;;;;5023985;28;20563;-59
2023/07/02 01:54:35;;;;;;;2.83;2.53;;;16.20;22.10;;;;;;5020554;28;20511;-59
2023/07/02 01:57:02;;;;;;;2.57;2.37;;;16.20;21.50;;;;;;5033346;28;20541;-58
2023/07/02 01:59:28;;;;;;;2.90;2.70;;;16.20;21.70;;;;;;5030332;28;20585;-59
2023/07/02 02:01:55;;;;;;;5.00;3.00;;;16.20;21.70;;;;;;5031859;28;20554;-58
2023/07/02 02:04:21;;;;;;;2.97;2.73;;;16.20;21.70;;;;;;5032871;28;20545;-58
2023/07/02 02:06:48;;;;;;;3.83;3.10;;;16.20;21.90;;;;;;5031842;28;20561;-59
2023/07/02 02:09:14;;;;;;;7.20;3.20;;;16.20;21.80;;;;;;5030898;28;21231;-57
2023/07/02 02:11:46;;;;;;;6.57;3.40;;;16.20;21.90;;;;;;5032837;28;20550;-58
2023/07/02 02:14:12;;;;;;;5.00;3.33;;;16.20;21.90;;;;;;5029727;28;20467;-59
2023/07/02 02:16:39;;;;;;;6.47;3.20;;;16.20;22.30;;;;;;5030009;28;20569;-58
2023/07/02 02:19:05;;;;;;;14.17;3.37;;;16.20;22.30;;;;;;5027172;28;20574;-58
2023/07/02 02:21:33;;;;;;;3.70;3.40;;;16.20;22.10;;;;;;5032708;28;20498;-58
2023/07/02 02:23:59;;;;;;;5.13;3.53;;;16.10;22.40;;;;;;5025994;28;20888;-59
2023/07/02 02:26:26;;;;;;;3.90;3.60;;;16.20;22.30;;;;;;5021227;28;20894;-58
2023/07/02 02:28:54;;;;;;;4.40;3.83;;;16.10;22.30;;;;;;5028789;28;20492;-58
2023/07/02 02:31:20;;;;;;;6.77;4.17;;;16.10;22.40;;;;;;5029920;28;20561;-59
2023/07/02 02:33:47;;;;;;;4.17;3.70;;;16.10;22.40;;;;;;5023614;28;20541;-58
2023/07/02 02:36:13;;;;;;;4.00;3.73;;;16.00;23.00;;;;;;5026341;28;20475;-58
2023/07/02 02:38:40;;;;;;;7.90;4.20;;;16.00;23.30;;;;;;5029157;28;20543;-57
2023/07/02 02:41:08;;;;;;;4.10;3.70;;;16.00;23.60;;;;;;5032544;28;20549;-58
2023/07/02 02:43:34;;;;;;;11.30;4.23;;;16.00;23.90;;;;;;5028533;28;20501;-58
2023/07/02 02:46:02;;;;;;;6.23;3.80;;;15.90;22.40;;;;;;5031927;28;20899;-58
2023/07/02 02:48:29;;;;;;;8.50;4.37;;;15.90;24.50;;;;;;5030815;28;20558;-58
2023/07/02 02:50:55;;;;;;;4.43;3.73;;;15.80;24.90;;;;;;5029035;28;20526;-58
2023/07/02 02:53:22;;;;;;;8.83;3.93;;;15.80;25.20;;;;;;5026961;28;20924;-59
2023/07/02 02:55:48;;;;;;;7.00;4.33;;;15.80;25.60;;;;;;5025324;28;20481;-58
2023/07/02 02:58:15;;;;;;;10.87;4.97;;;15.70;25.80;;;;;;5024966;28;20533;-59
2023/07/02 03:00:45;;;;;;;8.13;3.80;;;15.70;26.10;;;;;;5029997;28;20558;-58
2023/07/02 03:03:13;;;;;;;8.00;4.53;;;15.70;27.00;;;;;;5031883;28;20968;-58
2023/07/02 03:05:39;;;;;;;6.80;4.37;;;15.60;27.10;;;;;;5031149;28;20538;-58
2023/07/02 03:08:06;;;;;;;8.67;4.30;;;15.60;27.40;;;;;;5031561;28;20550;-58
2023/07/02 03:10:33;;;;;;;5.10;4.43;;;15.60;27.70;;;;;;5031757;28;20581;-58
2023/07/02 03:12:59;;;;;;;4.63;3.97;;;15.50;28.00;;;;;;5018625;28;20575;-57
2023/07/02 03:15:26;;;;;;;4.20;3.83;;;15.50;28.10;;;;;;5019970;28;20573;-59
2023/07/02 03:17:52;;;;;;;11.67;4.10;;;15.50;28.30;;;;;;5031867;28;20949;-58
2023/07/02 03:20:20;;;;;;;7.47;4.07;;;15.60;28.20;;;;;;5031543;28;20562;-57
2023/07/02 03:22:47;;;;;;;11.70;4.30;;;15.60;28.10;;;;;;5030915;28;21023;-58
2023/07/02 03:25:13;;;;;;;4.10;3.70;;;15.60;27.90;;;;;;5029023;28;20541;-58
2023/07/02 03:27:40;;;;;;;6.37;4.13;;;15.60;27.80;;;;;;5030368;28;20460;-57
2023/07/02 03:30:08;;;;;;;12.33;4.17;;;15.60;27.60;;;;;;5021844;28;21082;-58
2023/07/02 03:32:34;;;;;;;3.87;3.43;;;15.60;27.90;;;;;;5027095;28;20466;-59
2023/07/02 03:35:01;;;;;;;14.60;3.80;;;15.60;27.90;;;;;;5030424;28;20505;-58
2023/07/02 03:37:29;;;;;;;6.20;3.30;;;15.60;28.30;;;;;;5030021;28;20482;-57
2023/07/02 03:39:56;;;;;;;6.37;4.13;;;15.60;28.20;;;;;;5029267;28;20569;-59
2023/07/02 03:42:22;;;;;;;5.33;3.47;;;15.60;28.30;;;;;;5031707;28;20547;-59
2023/07/02 03:44:49;;;;;;;7.83;3.60;;;15.60;28.50;;;;;;5028548;28;20550;-58
2023/07/02 03:47:16;;;;;;;6.70;3.97;;;15.60;28.70;;;;;;5020842;28;20478;-58
2023/07/02 03:49:42;;;;;;;5.03;3.53;;;15.60;29.30;;;;;;5030871;28;20498;-58
2023/07/02 03:52:09;;;;;;;5.20;3.80;;;15.60;32.30;;;;;;5031362;28;20470;-59
2023/07/02 03:54:37;;;;;;;5.60;3.50;;;15.60;31.20;;;;;;5029311;28;20489;-57
2023/07/02 03:57:04;;;;;;;17.53;3.97;;;15.60;32.70;;;;;;5031764;28;21305;-58
2023/07/02 03:59:30;;;;;;;8.10;3.70;;;15.60;33.10;;;;;;5029897;28;21034;-57
2023/07/02 04:01:57;;;;;;;16.70;3.70;;;15.60;33.90;;;;;;5026453;28;20554;-58
2023/07/02 04:04:23;;;;;;;3.97;3.23;;;15.60;33.70;;;;;;5012186;28;20571;-58
2023/07/02 04:06:50;;;;;;;4.60;3.30;;;15.60;34.60;;;;;;5024522;28;20545;-58
2023/07/02 04:09:18;;;;;;;10.53;3.87;;;15.50;34.90;;;;;;5029107;28;20545;-59
2023/07/02 04:11:46;;;;;;;3.73;2.97;;;15.50;36.00;;;;;;5030095;28;20983;-57
2023/07/02 04:14:12;;;;;;;6.27;3.37;;;15.50;36.50;;;;;;5030573;28;20455;-56
2023/07/02 04:16:39;;;;;;;3.17;2.70;;;15.50;37.50;;;;;;5030033;28;20570;-59
2023/07/02 04:19:05;;;;;;;5.03;3.20;;;15.50;38.80;;;;;;5028959;28;21045;-59
2023/07/02 04:21:32;;;;;;;16.97;3.07;;;15.50;40.70;;;;;;5055369;22;20592;-57
2023/07/02 04:23:58;;;;;;;7.70;3.50;;;15.50;40.10;;;;;;5049348;28;20537;-56
2023/07/02 04:26:26;;;;;;;6.50;3.63;;;15.50;39.90;;;;;;5049990;28;20542;-55
2023/07/02 04:28:54;;;;;;;5.63;3.00;;;15.60;38.00;;;;;;5049947;28;20453;-55
2023/07/02 04:31:21;;;;;;;7.47;3.20;;;15.60;38.20;;;;;;5047356;28;20481;-56
2023/07/02 04:33:48;;;;;;;14.20;3.10;;;15.70;38.30;;;;;;5040016;28;20504;-56
2023/07/02 04:36:14;;;;;;;5.67;2.90;;;15.70;39.40;;;;;;5044316;28;20564;-56
2023/07/02 04:38:41;;;;;;;15.40;3.73;;;15.70;41.20;;;;;;5053387;28;20489;-58
2023/07/02 04:41:10;;;;;;;7.77;3.53;;;15.70;42.40;;;;;;5054250;28;20588;-56
2023/07/02 04:43:37;;;;;;;5.00;3.13;;;15.70;47.80;;;;;;5054287;28;20462;-56
2023/07/02 04:46:07;;;;;;;4.97;3.03;;;15.70;48.90;;;;;;5052552;28;20481;-57
2023/07/02 04:48:33;;;;;;;3.87;2.57;;;15.70;51.70;;;;;;5049819;28;20465;-57
2023/07/02 04:51:00;;;;;;;13.73;3.03;;;15.70;50.50;;;;;;5050156;28;20583;-57
2023/07/02 04:53:26;;;;;;;5.23;2.80;;;15.80;49.60;;;;;;5050884;28;20576;-55
2023/07/02 04:55:53;;;;;;;4.47;3.30;;;15.90;55.10;;;;;;5051411;28;20568;-56
2023/07/02 04:58:19;;;;;;;5.47;3.00;;;15.90;56.50;;;;;;5051003;28;20561;-56
2023/07/02 05:00:46;;;;;;;7.13;2.80;;;15.90;56.00;;;;;;5054902;28;20549;-52
2023/07/02 05:03:14;;;;;;;5.30;2.63;;;16.00;59.40;;;;;;5052405;28;20537;-53
2023/07/02 05:05:40;;;;;;;3.57;3.37;;;16.00;62.20;;;;;;5053763;28;20500;-52
2023/07/02 05:08:07;;;;;;;6.87;3.30;;;16.00;66.70;;;;;;5048728;28;20533;-52
2023/07/02 05:10:33;;;;;;;6.87;3.60;;;16.00;64.70;;;;;;5046112;28;20522;-53
2023/07/02 05:13:00;;;;;;;7.13;3.97;;;16.10;65.00;;;;;;5049248;28;20599;-52
2023/07/02 05:15:27;;;;;;;4.30;3.20;;;16.10;66.90;;;;;;5054476;28;20952;-51
2023/07/02 05:17:53;;;;;;;10.27;3.30;;;16.10;67.30;;;;;;5048469;28;20497;-52
2023/07/02 05:20:21;;;;;;;5.80;2.93;;;16.10;72.00;;;;;;5046037;28;20580;-52
2023/07/02 05:22:48;;;;;;;9.93;3.10;;;16.10;71.00;;;;;;5053713;28;20519;-52
2023/07/02 05:25:14;;;;;;;5.90;3.00;;;16.10;78.00;;;;;;5050360;28;20536;-53
2023/07/02 05:27:41;;;;;;;4.50;2.90;;;16.20;93.80;;;;;;5050263;28;20536;-52
2023/07/02 05:30:09;;;;;;;10.50;3.37;;;16.20;97.40;;;;;;5050407;28;20540;-52
2023/07/02 05:32:35;;;;;;;8.83;3.00;;;16.20;99.90;;;;;;5051943;28;20484;-52
2023/07/02 05:35:02;;;;;;;5.00;2.70;;;16.20;99.90;;;;;;5051201;28;21149;-52
2023/07/02 05:37:30;;;;;;;8.80;3.00;;;16.20;99.90;;;;;;5050462;28;20581;-53
2023/07/02 05:39:56;;;;;;;7.80;3.00;;;16.30;99.90;;;;;;5051014;28;20557;-52
2023/07/02 05:42:23;;;;;;;5.87;3.00;;;16.40;99.90;;;;;;5050597;28;20548;-52
2023/07/02 05:44:50;;;;;;;5.67;2.50;;;16.50;99.90;;;;;;5053149;28;20548;-51
2023/07/02 05:47:17;;;;;;;7.40;3.57;;;16.50;99.90;;;;;;5053215;28;20542;-52
2023/07/02 05:49:43;;;;;;;15.53;3.30;;;16.60;99.90;;;;;;5052508;28;20553;-52
2023/07/02 05:52:10;;;;;;;6.53;2.50;;;16.60;99.90;;;;;;5051464;28;21052;-51
2023/07/02 05:54:41;;;;;;;3.50;2.53;;;16.60;99.90;;;;;;5052978;28;20549;-51
2023/07/02 05:57:07;;;;;;;7.07;2.70;;;16.60;99.90;;;;;;5045757;28;20540;-51
2023/07/02 05:59:34;;;;;;;3.00;2.50;;;16.60;99.90;;;;;;5051607;28;20490;-52
2023/07/02 06:02:01;;;;;;;5.20;2.50;;;16.70;99.90;;;;;;5051847;28;20514;-52
2023/07/02 06:04:27;;;;;;;5.70;2.67;;;16.60;99.90;;;;;;5048594;28;20465;-51
2023/07/02 06:06:54;;;;;;;4.10;2.90;;;16.70;99.90;;;;;;5050582;28;20486;-52
2023/07/02 06:09:20;;;;;;;8.33;3.10;;;16.70;99.90;;;;;;5050568;28;20541;-52
2023/07/02 06:11:48;;;;;;;7.20;3.03;;;16.70;99.90;;;;;;5049516;28;20899;-56
2023/07/02 06:14:14;;;;;;;7.83;2.83;;;16.70;99.90;;;;;;5051678;28;20545;-51
2023/07/02 06:16:41;;;;;;;6.10;2.97;;;16.80;99.90;;;;;;5051141;28;20581;-51
2023/07/02 06:19:08;;;;;;;8.90;2.87;;;16.80;99.90;;;;;;5049179;28;20553;-56
2023/07/02 06:21:34;;;;;;;7.43;3.03;;;16.80;99.90;;;;;;5049934;28;21939;-53
2023/07/02 06:24:01;;;;;;;7.20;3.30;;;16.80;99.90;;;;;;5045826;28;20580;-53
2023/07/02 06:26:28;;;;;;;7.53;2.90;;;16.90;99.90;;;;;;5050330;28;20498;-53
2023/07/02 06:28:56;;;;;;;7.93;3.33;;;16.90;99.90;;;;;;5048207;28;21008;-53
2023/07/02 06:31:23;;;;;;;5.73;2.80;;;16.90;99.90;;;;;;5047487;28;20539;-53
2023/07/02 06:33:49;;;;;;;7.30;3.20;;;16.90;99.90;;;;;;5049721;28;20466;-53
2023/07/02 06:36:17;;;;;;;5.27;3.23;;;16.90;99.90;;;;;;5052268;28;21086;-51
2023/07/02 06:38:44;;;;;;;8.27;3.10;;;17.00;99.90;;;;;;5051807;28;20462;-52
2023/07/02 06:41:11;;;;;;;3.63;2.83;;;17.20;99.90;;;;;;5041132;28;20562;-51
2023/07/02 06:43:37;;;;;;;7.70;3.17;;;17.30;99.90;;;;;;5039190;28;20552;-52
2023/07/02 06:46:05;;;;;;;11.63;3.50;;;17.40;99.90;;;;;;5051333;28;20454;-53
2023/07/02 06:48:32;;;;;;;5.60;2.93;;;17.50;99.90;;;;;;5046968;28;20568;-53
2023/07/02 06:50:59;;;;;;;2.83;2.63;;;17.50;99.90;;;;;;5049571;28;20472;-53
2023/07/02 06:53:25;;;;;;;5.50;2.73;;;17.50;51.70;;;;;;5051758;28;21024;-54
2023/07/02 06:55:52;;;;;;;10.67;3.00;;;17.40;58.40;;;;;;5043265;28;20549;-53
2023/07/02 06:58:19;;;;;;;11.53;3.40;;;17.50;47.60;;;;;;5050600;28;20502;-53
2023/07/02 07:00:46;;;;;;;11.43;2.90;;;17.50;36.10;;;;;;5051263;28;20481;-53
2023/07/02 07:03:13;;;;;;;12.77;2.97;;;17.60;47.70;;;;;;5049696;28;20490;-54
2023/07/02 07:05:40;;;;;;;6.93;2.87;;;17.60;42.90;;;;;;5049293;28;20555;-53
2023/07/02 07:08:06;;;;;;;8.33;3.17;;;17.70;51.90;;;;;;5041437;28;20462;-52
2023/07/02 07:10:34;;;;;;;5.67;2.87;;;17.70;58.80;;;;;;5049445;28;21074;-54
2023/07/02 07:13:01;;;;;;;7.63;2.90;;;17.70;73.80;;;;;;5048594;28;20462;-52
2023/07/02 07:15:30;;;;;;;4.93;3.10;;;17.90;71.20;;;;;;5051185;28;20454;-54
2023/07/02 07:17:57;;;;;;;5.20;3.53;;;18.00;89.30;;;;;;5052614;28;20565;-55
2023/07/02 07:20:25;;;;;;;16.73;3.10;;;18.10;87.30;;;;;;5049657;28;20564;-52
2023/07/02 07:22:51;;;;;;;2.70;2.50;;;18.00;94.90;;;;;;5046844;28;21235;-53
2023/07/02 07:25:18;;;;;;;3.43;3.03;;;18.00;83.80;;;;;;5047674;28;20974;-53
2023/07/02 07:27:44;;;;;;;7.83;3.90;;;17.90;82.80;;;;;;5043833;28;20537;-53
2023/07/02 07:30:12;;;;;;;7.70;2.93;;;18.00;91.90;;;;;;5046577;28;20901;-53
2023/07/02 07:32:39;;;;;;;15.33;3.37;;;18.20;84.80;;;;;;5050000;28;20548;-53
2023/07/02 07:35:06;;;;;;;8.93;3.40;;;18.30;97.70;;;;;;5045380;28;20461;-54
2023/07/02 07:37:34;;;;;;;6.60;3.10;;;18.20;99.90;;;;;;5046068;28;20802;-53
2023/07/02 07:40:00;;;;;;;5.87;3.07;;;18.20;99.90;;;;;;5047301;28;20505;-55
2023/07/02 07:42:27;;;;;;;14.30;3.10;;;18.30;99.90;;;;;;5046189;28;20871;-53
2023/07/02 07:44:53;;;;;;;12.57;3.60;;;18.20;99.90;;;;;;5043973;28;20493;-52
2023/07/02 07:47:20;;;;;;;9.20;3.27;;;18.30;99.90;;;;;;5044394;28;20552;-51
2023/07/02 07:49:46;;;;;;;19.83;3.70;;;18.30;99.90;;;;;;5039598;28;20500;-50
2023/07/02 07:52:13;;;;;;;8.77;3.30;;;18.40;99.90;;;;;;5051720;28;20805;-50
2023/07/02 07:54:41;;;;;;;8.30;3.90;;;18.60;99.90;;;;;;5050882;28;20553;-56
2023/07/02 07:57:07;;;;;;;7.70;3.97;;;18.60;99.90;;;;;;5051041;28;20572;-54
2023/07/02 07:59:34;;;;;;;6.07;3.93;;;18.70;99.90;;;;;;5047577;28;20489;-55
2023/07/02 08:02:01;;;;;;;7.47;4.73;;;18.60;99.90;;;;;;5045712;28;20510;-56
2023/07/02 08:04:27;;;;;;;17.63;5.30;;;18.50;99.90;;;;;;5049751;28;20482;-55
2023/07/02 08:06:54;;;;;;;7.70;5.00;;;18.50;99.90;;;;;;5051044;28;20516;-56
2023/07/02 08:09:21;;;;;;;17.70;5.57;;;18.40;99.90;;;;;;5049580;28;20521;-55
2023/07/02 08:11:49;;;;;;;18.80;4.63;;;18.40;99.90;;;;;;5050279;28;20508;-55
2023/07/02 08:14:17;;;;;;;12.53;4.77;;;18.30;99.90;;;;;;5051325;28;20516;-55
2023/07/02 08:16:44;;;;;;;8.87;5.53;;;18.40;99.90;;;;;;5049859;28;20987;-51
2023/07/02 08:19:11;;;;;;;9.93;4.60;;;18.30;99.90;;;;;;5049712;28;20462;-53
2023/07/02 08:21:37;;;;;;;14.00;4.90;;;18.10;99.90;;;;;;5046446;28;21007;-51
2023/07/02 08:24:05;;;;;;;10.20;4.90;;;18.20;99.90;;;;;;5051314;28;21001;-52
2023/07/02 08:26:32;;;;;;;10.57;4.70;;;18.20;99.90;;;;;;5051609;28;20443;-52
2023/07/02 08:29:00;;;;;;;5.37;3.70;;;18.20;99.90;;;;;;5050122;28;20971;-50
2023/07/02 08:31:27;;;;;;;5.20;3.37;;;18.10;99.90;;;;;;5047961;28;20516;-51
2023/07/02 08:33:53;;;;;;;9.73;3.77;;;18.00;99.90;;;;;;5047741;28;20462;-50
2023/07/02 08:36:20;;;;;;;6.07;3.73;;;18.10;99.90;;;;;;5048854;28;20548;-50
2023/07/02 08:38:46;;;;;;;12.70;3.80;;;18.00;99.90;;;;;;5045910;28;20568;-50
2023/07/02 08:41:13;;;;;;;10.87;3.77;;;18.10;99.90;;;;;;5039422;28;20482;-50
2023/07/02 08:43:41;;;;;;;11.73;4.40;;;18.00;99.90;;;;;;5047685;28;20466;-55
2023/07/02 08:46:09;;;;;;;11.00;4.50;;;18.10;99.90;;;;;;5035950;28;20537;-51
2023/07/02 08:48:36;;;;;;;6.43;3.50;;;18.20;99.90;;;;;;5046131;28;20485;-50
2023/07/02 08:51:03;;;;;;;7.50;4.07;;;18.20;99.90;;;;;;5045328;28;20566;-55
2023/07/02 08:53:33;;;;;;;21.93;4.87;;;18.30;99.90;;;;;;5047903;28;20465;-55
2023/07/02 08:55:59;;;;;;;7.43;4.30;;;18.30;99.90;;;;;;5045094;28;20838;-56
2023/07/02 08:58:26;;;;;;;10.07;4.40;;;18.40;99.90;;;;;;5047703;28;20595;-54
2023/07/02 09:01:06;;;;;;;16.03;4.70;;;18.40;99.90;;;;;;5048971;28;21054;-50
2023/07/02 09:03:36;;;;;;;8.80;4.40;;;18.50;99.90;;;;;;5039771;28;20445;-50
2023/07/02 09:06:03;;;;;;;10.50;4.73;;;18.60;99.90;;;;;;5048056;28;20457;-51
2023/07/02 09:08:30;;;;;;;10.20;5.23;;;18.70;58.50;;;;;;5050115;28;20548;-50
2023/07/02 09:11:06;;;;;;;13.60;5.17;;;19.00;80.70;;;;;;5041789;28;20552;-51
2023/07/02 09:13:44;;;;;;;12.40;5.53;;;19.40;81.10;;;;;;5048875;28;20489;-51
2023/07/02 09:16:22;;;;;;;22.60;5.97;;;19.60;70.10;;;;;;5045339;28;20457;-50
2023/07/02 09:18:58;;;;;;;10.73;5.83;;;19.90;89.10;;;;;;5044744;28;20580;-51
2023/07/02 09:21:27;;;;;;;17.83;5.63;;;19.90;99.90;;;;;;5045637;28;20584;-51
2023/07/02 09:23:54;;;;;;;11.87;5.87;;;19.90;99.90;;;;;;5051017;28;20458;-51
2023/07/02 09:26:21;;;;;;;16.30;6.30;;;20.00;99.90;;;;;;5043707;28;20489;-50
2023/07/02 09:28:47;;;;;;;13.67;5.30;;;20.00;99.90;;;;;;5049875;28;20548;-51
2023/07/02 09:31:14;;;;;;;8.93;5.60;;;20.00;99.90;;;;;;5051999;28;20572;-51
2023/07/02 09:33:40;;;;;;;9.77;5.50;;;20.10;99.90;;;;;;5054056;28;20529;-50
2023/07/02 09:36:08;;;;;;;15.90;6.40;;;19.70;99.90;;;;;;5039997;28;20553;-50
2023/07/02 09:38:35;;;;;;;25.37;6.87;;;19.40;99.90;;;;;;5042716;28;20520;-55
2023/07/02 09:41:01;;;;;;;15.20;6.77;;;19.20;99.90;;;;;;5051985;28;20613;-55
2023/07/02 09:43:28;;;;;;;25.73;6.27;;;19.10;99.90;;;;;;5052592;28;20544;-55
2023/07/02 09:45:56;;;;;;;14.40;5.37;;;19.10;99.90;;;;;;5049294;28;20558;-55
2023/07/02 09:48:26;;;;;;;12.90;6.50;;;19.00;99.90;;;;;;5046312;28;20473;-55
2023/07/02 09:50:52;;;;;;;13.00;5.57;;;19.10;99.90;;;;;;5051164;28;20512;-55
2023/07/02 09:53:20;;;;;;;15.50;6.47;;;19.20;99.90;;;;;;5051631;28;20486;-55
2023/07/02 09:55:47;;;;;;;14.60;6.63;;;19.30;99.90;;;;;;5053629;28;20899;-55
2023/07/02 09:58:14;;;;;;;16.07;6.30;;;19.40;99.90;;;;;;5052363;28;20569;-55
2023/07/02 10:00:42;;;;;;;10.50;5.83;;;19.70;99.90;;;;;;5045470;28;20500;-55
2023/07/02 10:03:09;;;;;;;14.87;6.17;;;19.90;99.90;;;;;;5043416;28;20563;-55
2023/07/02 10:05:35;;;;;;;14.17;6.40;;;20.10;99.90;;;;;;5046193;28;20905;-56
2023/07/02 10:08:14;;;;;;;18.70;6.20;;;20.10;99.90;;;;;;5048682;28;20539;-55
2023/07/02 10:10:42;;;;;;;19.00;6.63;;;20.20;99.90;;;;;;5045345;28;20565;-56
2023/07/02 10:13:08;;;;;;;15.17;6.13;;;19.90;99.90;;;;;;5044778;28;20571;-55
2023/07/02 10:15:37;;;;;;;19.37;6.90;;;20.30;99.90;;;;;;5040313;28;21162;-51
2023/07/02 10:18:05;;;;;;;15.53;6.10;;;20.80;99.90;;;;;;5044573;28;20492;-50
2023/07/02 10:20:36;;;;;;;12.50;6.10;;;20.90;99.90;;;;;;5050986;28;20571;-55
2023/07/02 10:23:03;;;;;;;9.97;5.90;;;20.70;99.90;;;;;;5049469;28;20970;-56
2023/07/02 10:25:32;;;;;;;11.60;5.97;;;20.60;99.90;;;;;;5047722;28;20580;-55
2023/07/02 10:28:00;;;;;;;23.13;6.10;;;20.50;99.90;;;;;;5036628;28;20439;-55
2023/07/02 10:30:34;;;;;;;13.60;6.20;;;20.20;99.90;;;;;;5052732;28;20520;-53
2023/07/02 10:33:11;;;;;;;20.30;6.80;;;20.00;99.90;;;;;;5050808;28;20461;-53
2023/07/02 10:35:39;;;;;;;22.67;6.10;;;20.00;99.90;;;;;;5051362;28;20548;-52
2023/07/02 10:38:07;;;;;;;11.60;6.07;;;20.40;99.90;;;;;;5048487;28;20573;-53
2023/07/02 10:40:34;;;;;;;16.53;6.77;;;20.30;99.90;;;;;;5043684;28;20508;-51
2023/07/02 10:43:02;;;;;;;17.23;7.20;;;20.30;99.90;;;;;;5046044;28;20514;-50
2023/07/02 10:45:33;;;;;;;14.87;5.60;;;20.40;99.90;;;;;;5048870;28;20906;-50
2023/07/02 10:47:59;;;;;;;10.20;5.63;;;20.20;99.90;;;;;;5047585;28;20466;-51
2023/07/02 10:50:27;;;;;;;19.67;6.83;;;20.00;99.90;;;;;;5044584;28;20473;-51
2023/07/02 10:52:54;;;;;;;11.60;6.27;;;19.90;99.90;;;;;;5047398;28;20517;-51
2023/07/02 10:55:22;;;;;;;16.67;6.80;;;19.90;99.90;;;;;;5041402;28;20995;-53
2023/07/02 10:57:50;;;;;;;17.13;6.20;;;19.90;99.90;;;;;;5048379;28;20481;-54
2023/07/02 11:00:19;;;;;;;11.90;5.93;;;20.30;99.90;;;;;;5046721;28;20892;-53
2023/07/02 11:02:46;;;;;;;15.03;7.03;;;20.40;99.90;;;;;;5047245;28;20462;-53
2023/07/02 11:05:13;;;;;;;12.30;6.60;;;20.50;99.90;;;;;;5037176;28;20517;-53
2023/07/02 11:07:40;;;;;;;10.83;6.53;;;21.00;99.90;;;;;;5038081;28;20466;-52
2023/07/02 11:10:07;;;;;;;18.23;7.27;;;21.30;99.90;;;;;;5044434;28;20447;-52
2023/07/02 11:12:34;;;;;;;25.17;8.20;;;21.60;99.90;;;;;;5050534;28;20544;-52
2023/07/02 11:15:10;;;;;;;28.20;8.50;;;21.80;99.90;;;;;;5051437;28;21960;-52
2023/07/02 11:17:40;;;;;;;21.97;6.87;;;21.70;99.90;;;;;;5048580;28;20544;-52
2023/07/02 11:20:08;;;;;;;15.90;7.90;;;21.50;99.90;;;;;;5051557;28;20462;-52
2023/07/02 11:22:35;;;;;;;15.60;6.90;;;20.70;99.90;;;;;;5038303;28;20454;-52
2023/07/02 11:25:18;;;;;;;19.33;7.33;;;20.30;99.90;;;;;;5044095;28;20524;-52
2023/07/02 11:27:44;;;;;;;18.33;7.63;;;20.70;99.90;;;;;;5052542;28;20442;-52
2023/07/02 11:30:12;;;;;;;57.67;9.00;;;21.00;99.90;;;;;;5050528;28;20541;-53
2023/07/02 11:32:51;;;;;;;13.67;6.97;;;20.80;99.90;;;;;;5050026;28;20544;-52
2023/07/02 11:35:19;;;;;;;16.97;7.60;;;21.20;99.90;;;;;;5045446;28;20995;-52
2023/07/02 11:37:45;;;;;;;16.87;8.07;;;21.30;99.90;;;;;;5049413;28;20489;-53
2023/07/02 11:40:13;;;;;;;18.73;8.27;;;21.10;99.90;;;;;;5031898;28;20963;-53
2023/07/02 11:42:40;;;;;;;23.23;7.77;;;20.90;99.90;;;;;;5037859;28;20552;-51
2023/07/02 11:45:07;;;;;;;21.20;8.40;;;21.10;99.90;;;;;;5050971;28;20442;-52
2023/07/02 11:47:34;;;;;;;13.40;7.20;;;20.90;99.90;;;;;;5050681;28;20492;-53
2023/07/02 11:50:02;;;;;;;28.20;9.63;;;21.30;99.90;;;;;;5051865;28;20533;-51
2023/07/02 11:52:28;;;;;;;15.37;7.53;;;21.40;99.90;;;;;;5052356;28;20536;-52
2023/07/02 11:54:55;;;;;;;13.70;7.60;;;21.70;99.90;;;;;;5047618;28;20497;-53
2023/07/02 11:57:22;;;;;;;20.17;8.40;;;22.00;99.90;;;;;;5045086;28;20541;-52
2023/07/02 11:59:49;;;;;;;20.53;8.50;;;22.10;99.90;;;;;;5052139;28;20481;-52
2023/07/02 12:02:15;;;;;;;20.30;8.63;;;22.20;99.90;;;;;;5050700;28;20497;-52
2023/07/02 12:04:42;;;;;;;17.90;8.90;;;21.60;99.90;;;;;;5051378;28;20932;-53
2023/07/02 12:07:13;;;;;;;14.13;8.13;;;21.60;99.90;;;;;;5052149;28;20450;-51
2023/07/02 12:09:40;;;;;;;14.67;8.40;;;21.70;99.90;;;;;;5051125;28;20465;-52
2023/07/02 12:12:07;;;;;;;13.30;7.13;;;21.70;99.90;;;;;;5036107;28;20481;-53
2023/07/02 12:14:33;;;;;;;21.10;8.20;;;21.30;99.90;;;;;;5041239;28;20482;-52
2023/07/02 12:17:00;;;;;;;16.80;8.60;;;21.00;99.90;;;;;;5034810;28;20528;-52
2023/07/02 12:19:26;;;;;;;23.43;9.13;;;20.80;99.90;;;;;;5050503;28;20928;-53
2023/07/02 12:21:53;;;;;;;19.30;7.93;;;20.90;99.90;;;;;;5051725;28;20519;-52
2023/07/02 12:24:21;;;;;;;15.33;8.50;;;21.50;99.90;;;;;;5050794;28;20497;-52
2023/07/02 12:26:47;;;;;;;56.47;8.13;;;21.80;99.90;;;;;;5051132;28;20549;-52
2023/07/02 12:29:14;;;;;;;18.07;8.37;;;21.50;99.90;;;;;;5051318;28;20528;-51
2023/07/02 12:31:40;;;;;;;29.83;9.00;;;21.70;99.90;;;;;;5051010;28;21046;-52
2023/07/02 12:34:07;;;;;;;18.90;7.90;;;22.10;99.90;;;;;;5046529;28;20548;-55
2023/07/02 12:36:33;;;;;;;26.60;8.10;;;22.30;99.90;;;;;;5053467;28;20480;-55
2023/07/02 12:39:00;;;;;;;21.40;8.63;;;22.80;99.90;;;;;;5050524;28;20926;-56
2023/07/02 12:41:28;;;;;;;19.93;7.50;;;22.80;99.90;;;;;;5051918;28;20545;-52
2023/07/02 12:43:54;;;;;;;19.30;7.60;;;23.20;99.90;;;;;;5033769;28;20508;-53